HECA/CAI METAR and TAF weather

Enter ICAO airport designator
Station Type Date Time Source
HECA METAR 2024/02/26 16:30 UTC NOAA

HECA 261630Z 21006KT CAVOK 24/03 Q1010 NOSIG


Station Type Date Time Source
HECA Decoded METAR 2024/02/26 16:30 UTC NOAA

Cairo Airport, Egypt (HECA) 30-08N 031-24E 74M
Feb 26, 2024 - 11:30 AM EST / 2024.02.26 1630 UTC
Wind: from the SSW (210 degrees) at 7 MPH (6 KT):0
Visibility: greater than 7 mile(s):0
Temperature: 75 F (24 C)
Dew Point: 37 F (3 C)
Relative Humidity: 25%
Pressure (altimeter): 29.83 in. Hg (1010 hPa)
ob: HECA 261630Z 21006KT CAVOK 24/03 Q1010 NOSIG
cycle: 16

Station Type Date Time Source
HECA TAF 2024/02/26 12:58 UTC NOAA